Time;durP1;ratioP1;P1;durP2;ratioP2;P2;SDS_P1;SDS_P2;PMS_P1;PMS_P2;Temp;Humidity;BMP_temperature;BMP_pressure;BME280_temperature;BME280_humidity;BME280_pressure;Samples;Min_cycle;Max_cycle;Signal;HPM_P1;HPM_P2
2024/03/18 00:08:09;;;;;;;6.70;3.60;;;;;;;3.19;80.07;100668.77;650521;1304;545244;-81
2024/03/18 00:23:12;;;;;;;11.80;4.90;;;;;;;3.20;79.96;100654.16;670000;1266;137988;-82
2024/03/18 00:38:15;;;;;;;7.40;2.70;;;;;;;3.18;79.83;100650.48;670749;1266;138938;-80
2024/03/18 00:53:19;;;;;;;5.80;2.60;;;;;;;3.16;80.04;100636.05;671472;1277;138701;-81
2024/03/18 01:08:22;;;;;;;8.30;3.20;;;;;;;3.22;79.57;100617.48;669998;1265;138356;-83
2024/03/18 01:23:25;;;;;;;6.50;2.90;;;;;;;3.17;79.61;100609.57;669696;1265;137977;-81
2024/03/18 01:38:28;;;;;;;6.50;2.40;;;;;;;3.09;79.74;100600.14;669566;1278;139559;-81
2024/03/18 01:53:32;;;;;;;8.10;2.60;;;;;;;3.04;80.63;100591.21;669431;1265;138447;-81
2024/03/18 02:08:36;;;;;;;3.00;2.00;;;;;;;3.00;81.20;100588.83;672266;1263;138353;-81
2024/03/18 02:23:39;;;;;;;6.80;2.40;;;;;;;2.97;81.49;100584.48;669192;1265;138559;-81
2024/03/18 02:38:42;;;;;;;6.50;2.50;;;;;;;3.02;81.53;100577.67;670773;1265;138446;-82
2024/03/18 02:53:45;;;;;;;4.60;2.40;;;;;;;2.99;81.87;100580.56;671441;1263;138701;-81
2024/03/18 03:08:47;;;;;;;6.90;2.40;;;;;;;3.05;82.73;100580.42;669645;1262;138939;-82
2024/03/18 03:23:51;;;;;;;3.90;2.60;;;;;;;3.09;83.16;100565.36;668760;1262;138781;-83
2024/03/18 03:38:54;;;;;;;5.90;2.70;;;;;;;3.10;83.74;100548.89;668524;1261;138367;-80
2024/03/18 03:53:58;;;;;;;6.50;2.70;;;;;;;3.11;84.14;100565.09;670353;1262;139269;-81
2024/03/18 04:09:01;;;;;;;4.70;3.20;;;;;;;3.23;84.37;100568.66;672456;1265;138923;-82
2024/03/18 04:24:08;;;;;;;15.10;8.00;;;;;;;3.38;84.65;100575.31;669531;1267;138715;-81
2024/03/18 04:39:11;;;;;;;60.90;35.10;;;;;;;3.46;84.92;100576.79;671485;1266;138676;-82
2024/03/18 04:54:15;;;;;;;11.50;6.90;;;;;;;3.46;85.48;100581.94;669710;1265;139493;-81
2024/03/18 05:09:18;;;;;;;11.80;5.70;;;;;;;3.45;85.86;100585.80;670142;1265;138733;-82
2024/03/18 05:24:24;;;;;;;11.10;5.60;;;;;;;3.50;86.49;100587.79;673002;1265;138825;-82
2024/03/18 05:39:33;;;;;;;8.50;5.10;;;;;;;3.64;87.30;100587.91;676665;1265;139721;-81
2024/03/18 05:54:39;;;;;;;19.20;8.10;;;;;;;3.84;87.82;100587.19;675649;1265;138663;-82
2024/03/18 06:09:43;;;;;;;48.50;18.40;;;;;;;4.10;88.10;100588.13;674197;1265;139535;-82
2024/03/18 06:40:11;;;;;;;101.20;41.30;;;;;;;4.39;87.80;100602.45;671864;1263;140604;-81
2024/03/18 06:55:15;;;;;;;41.40;20.20;;;;;;;4.56;88.12;100595.76;671469;1263;139275;-81
2024/03/18 07:10:19;;;;;;;31.40;14.30;;;;;;;4.85;87.39;100597.02;671403;1263;140378;-81
2024/03/18 07:25:27;;;;;;;39.00;14.50;;;;;;;5.07;87.28;100592.27;671522;1262;138937;-81
2024/03/18 07:40:30;;;;;;;17.60;8.80;;;;;;;5.30;86.64;100599.41;676755;1263;139428;-82
2024/03/18 07:55:35;;;;;;;13.30;6.60;;;;;;;5.52;86.21;100608.80;672049;1262;139247;-81
2024/03/18 08:10:38;;;;;;;37.00;14.20;;;;;;;5.62;85.63;100620.14;672123;1261;138821;-82
2024/03/18 08:25:42;;;;;;;8.90;5.20;;;;;;;5.92;84.86;100619.52;669540;1262;138870;-81
2024/03/18 08:40:53;;;;;;;18.30;7.20;;;;;;;5.94;83.88;100619.58;671251;1262;138488;-82
2024/03/18 09:10:13;;;;;;;38.40;17.50;;;;;;;6.03;84.02;100632.04;652267;1301;545194;-80
2024/03/18 09:25:17;;;;;;;18.20;8.00;;;;;;;6.00;84.46;100639.52;672143;1266;139231;-82
2024/03/18 09:40:29;;;;;;;24.90;10.90;;;;;;;6.12;84.63;100649.89;671766;1267;139558;-80
2024/03/18 09:55:34;;;;;;;23.30;10.20;;;;;;;6.25;85.52;100658.42;667670;1268;138915;-81
2024/03/18 10:10:37;;;;;;;14.00;8.10;;;;;;;6.12;84.49;100654.59;671475;1264;138349;-80
2024/03/18 10:25:41;;;;;;;23.80;13.10;;;;;;;6.12;84.86;100658.74;672486;1268;138606;-81
2024/03/18 10:40:49;;;;;;;20.80;12.20;;;;;;;6.39;86.02;100664.81;672734;1265;139502;-80
2024/03/18 10:55:53;;;;;;;20.00;13.00;;;;;;;6.81;85.50;100668.06;674307;1268;140990;-80
2024/03/18 11:10:57;;;;;;;34.10;16.40;;;;;;;7.12;84.04;100674.00;670217;1268;139119;-79
2024/03/18 11:26:07;;;;;;;7.40;4.10;;;;;;;7.34;83.52;100671.63;666757;1268;139189;-80
2024/03/18 11:41:13;;;;;;;11.30;3.90;;;;;;;7.43;82.15;100669.42;666911;1268;137985;-79
2024/03/18 11:56:17;;;;;;;14.40;6.80;;;;;;;7.10;82.43;100667.52;670118;1267;140000;-80
2024/03/18 12:11:21;;;;;;;23.40;10.70;;;;;;;7.00;81.96;100666.25;668526;1263;139558;-79
2024/03/18 12:43:54;;;;;;;16.30;8.40;;;;;;;6.99;82.82;100678.13;650787;1301;545161;-80
2024/03/18 12:58:59;;;;;;;19.70;8.60;;;;;;;6.86;82.63;100677.11;670507;1270;138911;-80
2024/03/18 13:14:03;;;;;;;21.60;10.90;;;;;;;7.13;82.61;100682.25;672748;1272;139573;-81
2024/03/18 13:29:14;;;;;;;23.20;11.90;;;;;;;7.19;82.24;100687.59;674441;1275;139306;-80
2024/03/18 13:44:17;;;;;;;30.90;14.60;;;;;;;7.13;82.44;100693.27;672017;1275;139259;-80
2024/03/18 13:59:20;;;;;;;22.20;12.40;;;;;;;7.49;82.37;100691.85;670307;1277;138351;-80
2024/03/18 14:14:27;;;;;;;14.30;7.20;;;;;;;7.66;81.51;100696.59;672378;1266;138758;-79
2024/03/18 14:29:32;;;;;;;19.90;10.80;;;;;;;7.63;80.91;100705.88;672420;1263;139360;-81
2024/03/18 14:44:37;;;;;;;18.50;11.80;;;;;;;7.51;80.75;100706.31;670721;1265;138605;-80
2024/03/18 14:59:40;;;;;;;37.50;18.60;;;;;;;7.29;80.49;100714.07;671828;1265;139307;-78
2024/03/18 15:14:44;;;;;;;76.90;31.30;;;;;;;7.09;80.46;100714.16;677075;1262;139781;-78
2024/03/18 15:29:48;;;;;;;35.30;18.30;;;;;;;6.81;81.09;100717.40;672434;1261;138842;-78
2024/03/18 15:44:51;;;;;;;70.60;34.10;;;;;;;6.79;81.34;100726.61;673429;1277;139736;-77
2024/03/18 15:59:54;;;;;;;72.00;28.40;;;;;;;6.77;81.22;100739.58;674490;1262;139632;-78
2024/03/18 16:14:58;;;;;;;142.60;49.00;;;;;;;6.56;81.95;100750.83;672420;1267;139099;-79
2024/03/18 16:30:06;;;;;;;32.70;15.30;;;;;;;6.52;82.51;100755.27;673832;1262;139422;-79
2024/03/18 16:45:23;;;;;;;102.70;34.30;;;;;;;6.44;82.66;100768.63;673435;1266;138661;-80
2024/03/18 17:00:29;;;;;;;83.80;29.10;;;;;;;6.39;83.09;100791.71;672704;1265;139638;-80
2024/03/18 17:15:33;;;;;;;185.00;70.00;;;;;;;6.28;83.42;100809.36;673986;1266;139206;-81
2024/03/18 17:30:36;;;;;;;44.60;17.70;;;;;;;6.27;83.11;100826.51;674391;1262;139225;-80
2024/03/18 17:45:40;;;;;;;78.40;26.40;;;;;;;6.21;82.76;100834.84;676717;1265;139126;-79
2024/03/18 18:00:44;;;;;;;53.30;21.20;;;;;;;6.16;82.82;100846.79;676462;1263;139578;-81
2024/03/18 18:15:47;;;;;;;81.20;29.40;;;;;;;6.05;82.75;100861.52;675121;1265;138837;-80
2024/03/18 18:30:50;;;;;;;196.60;82.50;;;;;;;5.92;82.88;100869.83;673521;1263;139812;-80
2024/03/18 18:45:54;;;;;;;62.30;27.50;;;;;;;5.80;83.46;100888.61;672898;1266;139556;-81
2024/03/18 19:00:58;;;;;;;84.70;28.70;;;;;;;5.86;83.45;100894.48;670749;1265;139557;-79
2024/03/18 19:16:02;;;;;;;126.40;50.80;;;;;;;5.86;83.42;100901.83;669827;1267;138734;-80
2024/03/18 19:31:06;;;;;;;138.80;45.00;;;;;;;5.65;83.56;100920.02;672810;1265;139043;-80
2024/03/18 19:46:09;;;;;;;103.10;33.20;;;;;;;5.67;83.76;100932.02;673589;1265;139775;-81
2024/03/18 20:01:16;;;;;;;200.00;59.50;;;;;;;5.65;84.23;100935.48;673391;1265;139726;-80
2024/03/18 20:16:22;;;;;;;87.70;38.60;;;;;;;5.53;84.35;100937.86;671701;1262;139760;-80
2024/03/18 20:31:26;;;;;;;83.50;29.80;;;;;;;5.52;85.11;100948.17;673094;1275;139292;-82
2024/03/18 20:46:30;;;;;;;39.50;17.40;;;;;;;5.47;84.30;100945.66;671030;1265;139608;-82
2024/03/18 21:01:33;;;;;;;55.40;23.00;;;;;;;5.29;84.61;100953.77;673330;1265;139205;-81
2024/03/18 21:16:36;;;;;;;52.90;21.30;;;;;;;5.18;84.85;100963.94;669828;1265;138850;-79
2024/03/18 21:31:40;;;;;;;43.10;19.80;;;;;;;5.00;84.63;100959.14;668783;1267;141689;-81
2024/03/18 21:46:44;;;;;;;102.20;37.40;;;;;;;4.86;84.78;100955.91;667822;1265;139165;-81
2024/03/18 22:01:49;;;;;;;54.00;22.70;;;;;;;4.74;85.34;100961.40;669303;1263;139024;-79
2024/03/18 22:16:52;;;;;;;60.40;25.50;;;;;;;4.67;84.94;100968.73;669078;1265;138828;-80
2024/03/18 22:31:55;;;;;;;75.00;28.40;;;;;;;4.54;85.07;100971.81;670674;1266;139150;-80
2024/03/18 22:46:58;;;;;;;58.50;22.50;;;;;;;4.69;85.41;100981.23;667886;1265;140015;-80
2024/03/18 23:02:01;;;;;;;66.20;28.40;;;;;;;4.83;85.68;100993.33;667793;1277;138969;-80
2024/03/18 23:17:04;;;;;;;38.30;18.00;;;;;;;4.95;85.82;100995.83;668641;1265;139345;-81
2024/03/18 23:32:08;;;;;;;46.80;21.70;;;;;;;5.64;83.23;100999.06;668396;1265;139115;-80
2024/03/18 23:47:22;;;;;;;38.50;17.10;;;;;;;5.75;82.03;101008.65;667834;1263;138814;-81
